Time;durP1;ratioP1;P1;durP2;ratioP2;P2;SDS_P1;SDS_P2;PMS_P1;PMS_P2;Temp;Humidity;BMP_temperature;BMP_pressure;BME280_temperature;BME280_humidity;BME280_pressure;Samples;Min_cycle;Max_cycle;Signal;HPM_P1;HPM_P2
2023/10/08 00:02:03;;;;;;;16.33;9.13;;;14.30;99.90;;;;;;4450782;28;658376;-67
2023/10/08 00:04:51;;;;;;;18.13;10.97;;;14.30;99.90;;;;;;4425047;28;659043;-67
2023/10/08 00:07:42;;;;;;;18.97;13.77;;;14.20;99.90;;;;;;4433859;27;658388;-66
2023/10/08 00:10:34;;;;;;;16.70;11.23;;;14.20;99.90;;;;;;4424555;28;659268;-67
2023/10/08 00:13:22;;;;;;;17.23;12.97;;;14.20;99.90;;;;;;4424544;28;659237;-67
2023/10/08 00:16:10;;;;;;;7.37;5.57;;;14.20;99.90;;;;;;4425020;27;659543;-66
2023/10/08 00:18:59;;;;;;;7.37;5.20;;;14.00;99.90;;;;;;4427574;28;656388;-67
2023/10/08 00:21:48;;;;;;;3.50;2.60;;;13.80;99.90;;;;;;4454926;28;656157;-66
2023/10/08 00:24:40;;;;;;;2.80;2.27;;;13.70;99.90;;;;;;4434475;28;657807;-66
2023/10/08 00:27:28;;;;;;;2.00;1.47;;;13.60;99.90;;;;;;4405383;27;657720;-66
2023/10/08 00:30:17;;;;;;;2.60;1.30;;;13.60;99.90;;;;;;4446766;28;657655;-67
2023/10/08 00:33:05;;;;;;;1.37;1.20;;;13.50;99.90;;;;;;4433869;28;658456;-66
2023/10/08 00:35:54;;;;;;;1.20;1.10;;;13.30;99.90;;;;;;4433741;28;656597;-66
2023/10/08 00:38:44;;;;;;;2.17;1.30;;;13.40;99.90;;;;;;4451307;28;657513;-67
2023/10/08 00:41:33;;;;;;;2.03;1.50;;;13.40;99.90;;;;;;4425781;28;656257;-67
2023/10/08 00:44:23;;;;;;;2.97;1.70;;;13.30;99.90;;;;;;4427154;28;657276;-66
2023/10/08 00:47:12;;;;;;;1.43;1.33;;;13.30;99.90;;;;;;4427963;27;657189;-67
2023/10/08 00:50:09;;;;;;;2.10;1.47;;;13.30;99.90;;;;;;4430686;28;656672;-67
2023/10/08 00:53:01;;;;;;;1.50;1.20;;;13.30;99.90;;;;;;4429082;28;656877;-67
2023/10/08 00:55:53;;;;;;;1.20;1.10;;;13.30;99.90;;;;;;4408235;28;657597;-67
2023/10/08 00:58:41;;;;;;;2.27;1.30;;;13.40;99.90;;;;;;4432736;28;657631;-67
2023/10/08 01:01:28;;;;;;;1.47;1.20;;;13.20;99.90;;;;;;4429280;28;659026;-67
2023/10/08 01:04:22;;;;;;;2.93;1.40;;;13.20;99.90;;;;;;4453361;28;657283;-66
2023/10/08 01:07:12;;;;;;;2.60;1.60;;;13.20;99.90;;;;;;4408456;28;657027;-67
2023/10/08 01:10:10;;;;;;;1.60;1.47;;;13.10;99.90;;;;;;4429537;28;657612;-67
2023/10/08 01:13:05;;;;;;;1.43;1.30;;;13.00;99.90;;;;;;4420808;28;656900;-67
2023/10/08 01:15:55;;;;;;;2.20;1.50;;;13.00;99.90;;;;;;4418194;28;656410;-67
2023/10/08 01:18:49;;;;;;;3.07;2.23;;;13.00;99.90;;;;;;4449409;28;657472;-67
2023/10/08 01:21:39;;;;;;;2.80;2.20;;;13.00;99.90;;;;;;4428085;28;656471;-67
2023/10/08 01:24:30;;;;;;;2.97;2.67;;;13.00;99.90;;;;;;4436789;27;656729;-67
2023/10/08 01:27:21;;;;;;;3.80;2.30;;;13.00;99.90;;;;;;4415094;27;656879;-67
2023/10/08 01:30:17;;;;;;;3.77;2.00;;;12.90;99.90;;;;;;4432674;28;656739;-67
2023/10/08 01:33:07;;;;;;;2.60;1.10;;;12.80;99.90;;;;;;4399792;27;656921;-67
2023/10/08 01:35:54;;;;;;;0.80;0.60;;;12.60;99.90;;;;;;4426703;28;657085;-67
2023/10/08 01:38:42;;;;;;;0.87;0.70;;;12.20;99.90;;;;;;4349882;28;656404;-67
2023/10/08 01:41:31;;;;;;;0.30;0.30;;;12.10;99.90;;;;;;4330188;27;657239;-67
2023/10/08 01:44:18;;;;;;;0.57;0.30;;;12.00;99.90;;;;;;4311335;28;657501;-67
2023/10/08 01:47:06;;;;;;;1.03;0.20;;;11.80;99.90;;;;;;4403564;28;656497;-67
2023/10/08 01:50:04;;;;;;;1.13;0.10;;;11.50;99.90;;;;;;4434079;28;656938;-67
2023/10/08 01:52:52;;;;;;;0.73;0.30;;;11.40;99.90;;;;;;4436348;28;657097;-67
2023/10/08 01:55:49;;;;;;;0.40;0.30;;;11.20;99.90;;;;;;4424725;28;657336;-66
2023/10/08 01:58:38;;;;;;;1.87;0.30;;;11.00;99.90;;;;;;4433651;28;656723;-66
2023/10/08 02:01:25;;;;;;;0.20;0.20;;;10.80;99.90;;;;;;4426416;28;656930;-67
2023/10/08 02:04:13;;;;;;;1.17;0.30;;;10.60;99.90;;;;;;4430762;28;656472;-66
2023/10/08 02:07:00;;;;;;;0.20;0.20;;;10.50;99.90;;;;;;4447467;28;657589;-66
2023/10/08 02:09:48;;;;;;;0.20;0.20;;;10.50;99.90;;;;;;4433255;28;656915;-66
2023/10/08 02:12:35;;;;;;;0.40;0.40;;;10.40;99.90;;;;;;4451618;28;658572;-66
2023/10/08 02:15:24;;;;;;;0.20;0.20;;;10.30;99.90;;;;;;4432560;28;657352;-67
2023/10/08 02:18:12;;;;;;;0.70;0.20;;;10.10;99.90;;;;;;4449139;28;656632;-66
2023/10/08 02:20:59;;;;;;;0.67;0.27;;;10.10;99.90;;;;;;4429042;28;657474;-66
2023/10/08 02:23:47;;;;;;;2.47;0.43;;;10.00;99.90;;;;;;4451915;28;657086;-66
2023/10/08 02:26:34;;;;;;;0.70;0.30;;;10.00;99.90;;;;;;4441600;28;657170;-67
2023/10/08 02:29:25;;;;;;;0.30;0.22;;;10.00;99.90;;;;;;4452136;28;656532;-67
2023/10/08 02:32:14;;;;;;;0.33;0.30;;;10.00;99.90;;;;;;4412011;28;657181;-67
2023/10/08 02:35:02;;;;;;;2.20;0.30;;;9.90;99.90;;;;;;4450903;27;657578;-67
2023/10/08 02:37:49;;;;;;;1.13;0.40;;;9.90;99.90;;;;;;4430808;27;656065;-66
2023/10/08 02:40:44;;;;;;;1.10;0.40;;;9.90;99.90;;;;;;4452381;28;656230;-67
2023/10/08 02:43:32;;;;;;;1.60;0.37;;;9.80;99.90;;;;;;4440348;28;656338;-66
2023/10/08 02:46:19;;;;;;;2.13;0.40;;;9.80;99.90;;;;;;4435342;28;655552;-66
2023/10/08 02:49:10;;;;;;;0.43;0.30;;;9.70;99.90;;;;;;4451196;27;655290;-67
2023/10/08 02:51:58;;;;;;;1.80;0.60;;;9.60;99.90;;;;;;4431151;28;655841;-67
2023/10/08 02:54:45;;;;;;;0.40;0.40;;;9.60;99.90;;;;;;4459145;28;656055;-67
2023/10/08 02:57:32;;;;;;;2.40;0.60;;;9.60;99.90;;;;;;4439550;27;655559;-67
2023/10/08 03:00:20;;;;;;;0.63;0.40;;;9.50;99.90;;;;;;4463054;28;656008;-66
2023/10/08 03:03:10;;;;;;;3.03;0.57;;;9.50;99.90;;;;;;4436839;27;655612;-66
2023/10/08 03:05:59;;;;;;;1.00;0.50;;;9.40;99.90;;;;;;4442900;28;655939;-66
2023/10/08 03:08:47;;;;;;;1.10;0.50;;;9.50;99.90;;;;;;4460511;28;655454;-67
2023/10/08 03:11:37;;;;;;;1.27;0.50;;;9.40;99.90;;;;;;4437764;28;656106;-66
2023/10/08 03:14:26;;;;;;;1.23;0.60;;;9.50;99.90;;;;;;4435523;28;655872;-67
2023/10/08 03:17:19;;;;;;;1.37;0.60;;;9.50;99.90;;;;;;4438698;28;655636;-66
2023/10/08 03:20:29;;;;;;;3.33;0.70;;;9.50;99.90;;;;;;4435732;28;655642;-67
2023/10/08 03:23:25;;;;;;;1.03;0.50;;;9.50;99.90;;;;;;4432628;28;655765;-67
2023/10/08 03:26:32;;;;;;;1.57;0.50;;;9.50;99.90;;;;;;4415630;28;655746;-67
2023/10/08 03:29:19;;;;;;;1.20;0.90;;;9.50;99.90;;;;;;4433937;28;655788;-67
2023/10/08 03:32:06;;;;;;;1.03;0.50;;;9.40;99.90;;;;;;4450714;28;655618;-67
2023/10/08 03:34:54;;;;;;;2.00;0.63;;;9.40;99.90;;;;;;4436506;28;655812;-67
2023/10/08 03:37:46;;;;;;;1.70;0.60;;;9.50;99.90;;;;;;4449998;28;655635;-67
2023/10/08 03:40:43;;;;;;;1.90;0.63;;;9.50;99.90;;;;;;4433128;28;655388;-67
2023/10/08 03:43:47;;;;;;;0.40;0.40;;;9.50;99.90;;;;;;4430439;28;656101;-67
2023/10/08 03:46:39;;;;;;;0.70;0.60;;;9.50;99.90;;;;;;4436105;28;655229;-67
2023/10/08 03:49:27;;;;;;;1.23;0.50;;;9.40;99.90;;;;;;4428438;28;655623;-67
2023/10/08 03:52:15;;;;;;;1.23;0.63;;;9.50;99.90;;;;;;4430078;28;656142;-66
2023/10/08 03:55:07;;;;;;;1.57;0.80;;;9.40;99.90;;;;;;4423924;28;656277;-67
2023/10/08 03:57:57;;;;;;;4.07;1.00;;;9.30;99.90;;;;;;4417030;28;655740;-66
2023/10/08 04:00:46;;;;;;;2.17;0.90;;;9.30;99.90;;;;;;4414421;28;656385;-66
2023/10/08 04:03:51;;;;;;;5.07;0.80;;;9.10;99.90;;;;;;4417321;28;657472;-67
2023/10/08 04:06:38;;;;;;;3.83;1.13;;;9.10;99.90;;;;;;4402129;28;655762;-66
2023/10/08 04:09:26;;;;;;;5.13;1.00;;;9.00;99.90;;;;;;4451198;28;655716;-66
2023/10/08 04:12:18;;;;;;;4.60;1.40;;;9.00;99.90;;;;;;4431051;28;656398;-66
2023/10/08 04:15:08;;;;;;;5.77;1.30;;;8.90;99.90;;;;;;4427523;28;656204;-67
2023/10/08 04:17:57;;;;;;;7.13;1.53;;;8.90;99.90;;;;;;4435310;28;655890;-66
2023/10/08 04:21:00;;;;;;;6.45;1.60;;;8.90;99.90;;;;;;4434906;28;657333;-67
2023/10/08 04:23:52;;;;;;;5.87;2.17;;;8.80;99.90;;;;;;4424226;28;655947;-66
2023/10/08 04:26:40;;;;;;;8.67;2.40;;;8.80;99.90;;;;;;4427955;28;656457;-66
2023/10/08 04:29:31;;;;;;;8.67;2.43;;;8.80;99.90;;;;;;4429693;28;655394;-67
2023/10/08 04:32:24;;;;;;;9.33;2.00;;;8.80;99.90;;;;;;4431530;28;655679;-67
2023/10/08 04:35:15;;;;;;;4.38;1.70;;;8.80;99.90;;;;;;4428504;28;655115;-67
2023/10/08 04:38:04;;;;;;;7.40;1.50;;;8.70;99.90;;;;;;4444685;28;655468;-66
2023/10/08 04:40:52;;;;;;;8.73;1.60;;;8.80;99.90;;;;;;4451097;28;656516;-67
2023/10/08 04:43:42;;;;;;;6.87;1.90;;;8.70;99.90;;;;;;4435301;28;655774;-67
2023/10/08 04:46:46;;;;;;;3.35;1.13;;;8.70;99.90;;;;;;4431317;28;656127;-66
2023/10/08 04:49:37;;;;;;;6.83;1.20;;;8.70;99.90;;;;;;4429271;28;655635;-67
2023/10/08 04:52:27;;;;;;;3.63;1.00;;;8.70;99.90;;;;;;4424725;28;656421;-66
2023/10/08 04:55:20;;;;;;;4.43;1.30;;;8.60;99.90;;;;;;4433790;28;655746;-67
2023/10/08 04:58:19;;;;;;;3.93;1.27;;;8.70;99.90;;;;;;4448794;28;655898;-67
2023/10/08 05:01:20;;;;;;;3.97;0.97;;;8.60;99.90;;;;;;4425694;28;655368;-66
2023/10/08 05:04:23;;;;;;;9.93;1.20;;;8.70;99.90;;;;;;4408998;28;655937;-66
2023/10/08 05:07:21;;;;;;;7.73;1.53;;;8.70;99.90;;;;;;4428903;28;656197;-66
2023/10/08 05:10:14;;;;;;;5.97;1.08;;;8.70;99.90;;;;;;4396909;28;655797;-67
2023/10/08 05:13:16;;;;;;;5.37;1.33;;;8.60;99.90;;;;;;4403184;28;656484;-66
2023/10/08 05:16:12;;;;;;;1.87;0.90;;;8.70;99.90;;;;;;4402075;28;655844;-66
2023/10/08 05:22:17;;;;;;;4.10;1.37;;;8.70;99.90;;;;;;4391516;28;655440;-66
2023/10/08 05:25:07;;;;;;;6.40;2.43;;;8.70;99.90;;;;;;4427606;28;656052;-66
2023/10/08 05:27:58;;;;;;;6.30;1.53;;;8.70;99.90;;;;;;4428919;28;657921;-66
2023/10/08 05:30:54;;;;;;;2.53;1.37;;;8.70;99.90;;;;;;4436569;27;656995;-66
2023/10/08 05:33:59;;;;;;;5.00;2.00;;;8.70;99.90;;;;;;4428657;27;655821;-67
2023/10/08 05:39:55;;;;;;;4.43;1.40;;;8.70;99.90;;;;;;4293330;28;655670;-67
2023/10/08 05:42:46;;;;;;;5.37;1.30;;;8.60;99.90;;;;;;4297789;27;655701;-67
2023/10/08 05:45:34;;;;;;;6.88;1.60;;;8.70;99.90;;;;;;4335351;28;656079;-67
2023/10/08 05:48:27;;;;;;;6.13;1.60;;;8.80;99.90;;;;;;4450199;28;654856;-67
2023/10/08 05:51:33;;;;;;;8.03;1.90;;;8.80;99.90;;;;;;4405770;28;655909;-67
2023/10/08 05:54:35;;;;;;;6.60;2.83;;;8.80;99.90;;;;;;4432336;28;656229;-67
2023/10/08 05:57:38;;;;;;;7.53;3.23;;;8.80;99.90;;;;;;4408405;28;655549;-66
2023/10/08 06:03:35;;;;;;;5.43;2.43;;;8.80;99.90;;;;;;4444596;28;660432;-66
2023/10/08 06:06:36;;;;;;;6.40;1.97;;;8.80;99.90;;;;;;4445410;28;655541;-66
2023/10/08 06:09:34;;;;;;;13.93;3.43;;;8.80;99.90;;;;;;4407968;28;656610;-67
2023/10/08 06:12:30;;;;;;;13.40;4.37;;;8.70;99.90;;;;;;4427070;28;656419;-66
2023/10/08 06:15:27;;;;;;;13.53;4.90;;;8.70;99.90;;;;;;4430000;28;656973;-66
2023/10/08 06:18:16;;;;;;;18.93;4.67;;;8.60;99.90;;;;;;4408434;28;657090;-66
2023/10/08 06:21:08;;;;;;;11.80;4.13;;;8.70;99.90;;;;;;4429403;28;656830;-66
2023/10/08 06:23:56;;;;;;;12.43;4.33;;;8.80;99.90;;;;;;4425679;28;657140;-66
2023/10/08 06:26:46;;;;;;;15.27;3.70;;;8.70;99.90;;;;;;4428712;28;657306;-67
2023/10/08 06:29:35;;;;;;;8.33;2.77;;;8.70;99.90;;;;;;4426425;28;658121;-66
2023/10/08 06:32:24;;;;;;;6.20;2.17;;;8.70;99.90;;;;;;4430208;28;656075;-67
2023/10/08 06:35:17;;;;;;;9.30;2.50;;;8.60;99.90;;;;;;4447084;28;655149;-67
2023/10/08 06:38:09;;;;;;;7.37;2.20;;;8.50;99.90;;;;;;4410693;28;655737;-66
2023/10/08 06:40:59;;;;;;;6.27;1.67;;;8.60;99.90;;;;;;4426374;28;655377;-66
2023/10/08 06:43:49;;;;;;;3.80;2.10;;;8.70;99.90;;;;;;4429346;28;656736;-66
2023/10/08 06:46:36;;;;;;;7.13;2.10;;;8.80;99.90;;;;;;4424855;28;656319;-66
2023/10/08 06:49:24;;;;;;;7.63;2.00;;;8.80;99.90;;;;;;4424737;28;655408;-66
2023/10/08 06:52:13;;;;;;;5.77;1.70;;;8.90;99.90;;;;;;4439902;28;655632;-67
2023/10/08 06:55:02;;;;;;;6.20;1.57;;;8.90;99.90;;;;;;4424522;28;656079;-66
2023/10/08 06:57:50;;;;;;;6.80;2.10;;;8.90;99.90;;;;;;4425457;28;656265;-66
2023/10/08 07:00:46;;;;;;;5.53;1.70;;;8.90;99.90;;;;;;4443213;28;655483;-67
2023/10/08 07:03:33;;;;;;;9.67;2.50;;;8.70;99.90;;;;;;4400764;28;656741;-66
2023/10/08 07:06:31;;;;;;;8.70;2.30;;;8.80;99.90;;;;;;4447278;28;656762;-66
2023/10/08 07:09:29;;;;;;;10.87;2.50;;;8.70;99.90;;;;;;4405836;28;655855;-67
2023/10/08 07:12:19;;;;;;;6.03;2.67;;;8.80;99.90;;;;;;4425779;28;656861;-66
2023/10/08 07:15:12;;;;;;;10.03;3.27;;;8.90;99.90;;;;;;4431982;28;657592;-66
2023/10/08 07:18:08;;;;;;;13.50;3.47;;;8.90;99.90;;;;;;4402167;28;657252;-66
2023/10/08 07:21:00;;;;;;;11.97;3.40;;;8.80;99.90;;;;;;4422658;28;656539;-67
2023/10/08 07:24:00;;;;;;;13.47;3.87;;;8.70;99.90;;;;;;4407885;28;656688;-67
2023/10/08 07:26:49;;;;;;;8.67;3.50;;;8.80;99.90;;;;;;4412987;28;657443;-67
2023/10/08 07:29:36;;;;;;;9.53;3.30;;;8.90;99.90;;;;;;4449138;28;657267;-67
2023/10/08 07:32:25;;;;;;;7.13;2.93;;;8.90;99.90;;;;;;4430914;28;656192;-66
2023/10/08 07:35:23;;;;;;;11.00;3.33;;;8.90;99.90;;;;;;4437484;28;655607;-66
2023/10/08 07:38:10;;;;;;;11.50;3.43;;;9.00;99.90;;;;;;4428376;28;657157;-66
2023/10/08 07:40:58;;;;;;;13.07;3.23;;;9.20;99.90;;;;;;4428126;28;657777;-66
2023/10/08 07:43:53;;;;;;;11.07;3.10;;;9.30;99.90;;;;;;4449365;28;659539;-67
2023/10/08 07:46:40;;;;;;;7.23;2.63;;;9.60;99.90;;;;;;4400436;28;657312;-66
2023/10/08 07:49:29;;;;;;;9.93;3.10;;;9.70;99.90;;;;;;4438608;28;655392;-67
2023/10/08 07:52:17;;;;;;;7.30;2.70;;;9.60;99.90;;;;;;4448932;28;655548;-66
2023/10/08 07:55:05;;;;;;;6.60;2.90;;;9.60;99.90;;;;;;4427151;28;657403;-66
2023/10/08 07:57:52;;;;;;;11.20;2.90;;;9.40;99.90;;;;;;4436114;27;655367;-66
2023/10/08 08:00:41;;;;;;;8.50;3.27;;;9.40;99.90;;;;;;4450768;27;657319;-66
2023/10/08 08:03:28;;;;;;;6.93;3.23;;;9.20;99.90;;;;;;4433085;27;656177;-66
2023/10/08 08:06:16;;;;;;;9.03;2.80;;;9.10;99.90;;;;;;4449903;27;655574;-66
2023/10/08 08:09:08;;;;;;;7.10;2.93;;;9.00;99.90;;;;;;4429902;28;656522;-66
2023/10/08 08:11:57;;;;;;;7.40;3.30;;;9.10;99.90;;;;;;4423793;27;656939;-66
2023/10/08 08:14:44;;;;;;;8.60;3.50;;;9.30;99.90;;;;;;4429445;28;655643;-66
2023/10/08 08:17:33;;;;;;;8.03;3.17;;;9.40;99.90;;;;;;4445574;28;655913;-66
2023/10/08 08:20:22;;;;;;;7.03;3.20;;;9.50;99.90;;;;;;4426910;28;656274;-67
2023/10/08 08:23:09;;;;;;;12.23;3.93;;;9.80;99.90;;;;;;4426757;28;655852;-66
2023/10/08 08:26:11;;;;;;;11.17;3.20;;;10.40;99.90;;;;;;4447083;28;656611;-66
2023/10/08 08:28:59;;;;;;;13.70;3.90;;;11.10;99.90;;;;;;4398864;28;657893;-66
2023/10/08 08:31:47;;;;;;;4.90;3.00;;;11.50;99.90;;;;;;4448125;27;657499;-66
2023/10/08 08:34:35;;;;;;;10.80;3.47;;;11.60;99.90;;;;;;4432071;28;657479;-66
2023/10/08 08:37:26;;;;;;;7.90;3.10;;;11.60;99.90;;;;;;4428653;28;657163;-66
2023/10/08 08:40:17;;;;;;;7.63;3.40;;;11.00;99.90;;;;;;4426653;28;656543;-66
2023/10/08 08:43:05;;;;;;;9.03;3.87;;;10.60;99.90;;;;;;4435166;27;657410;-66
2023/10/08 08:45:52;;;;;;;9.50;4.13;;;11.00;99.90;;;;;;4450731;28;656149;-67
2023/10/08 08:48:40;;;;;;;10.20;3.77;;;11.40;99.90;;;;;;4425062;28;657376;-67
2023/10/08 08:51:30;;;;;;;8.90;3.37;;;11.50;99.90;;;;;;4428032;28;657882;-67
2023/10/08 08:54:17;;;;;;;6.67;2.67;;;11.50;99.90;;;;;;4447624;28;656940;-67
2023/10/08 08:57:06;;;;;;;5.43;2.60;;;11.20;99.90;;;;;;4446512;28;657360;-67
2023/10/08 08:59:54;;;;;;;8.23;2.67;;;11.10;99.90;;;;;;4434522;27;656928;-66
2023/10/08 09:02:43;;;;;;;6.13;3.00;;;11.10;99.90;;;;;;4451180;28;656486;-66
2023/10/08 09:05:34;;;;;;;7.00;2.90;;;11.70;99.90;;;;;;4430575;28;657578;-67
2023/10/08 09:08:24;;;;;;;11.20;3.00;;;12.10;99.90;;;;;;4423392;27;657362;-67
2023/10/08 09:11:15;;;;;;;6.13;2.90;;;12.20;99.90;;;;;;4424174;28;657345;-67
2023/10/08 09:14:03;;;;;;;5.90;2.87;;;13.30;99.90;;;;;;4424438;28;656557;-67
2023/10/08 09:16:54;;;;;;;4.18;2.53;;;13.10;99.90;;;;;;4421802;28;656149;-67
2023/10/08 09:19:42;;;;;;;4.23;2.40;;;13.00;99.90;;;;;;4420914;27;657148;-67
2023/10/08 09:22:30;;;;;;;5.80;2.73;;;12.50;99.90;;;;;;4426391;28;656405;-67
2023/10/08 09:25:24;;;;;;;5.27;2.23;;;13.00;99.90;;;;;;4443489;28;656944;-67
2023/10/08 09:28:12;;;;;;;4.07;2.17;;;13.40;99.90;;;;;;4424171;28;656755;-66
2023/10/08 09:31:00;;;;;;;6.47;2.20;;;13.60;99.90;;;;;;4417638;28;657916;-66
2023/10/08 09:33:55;;;;;;;4.20;2.00;;;13.70;99.90;;;;;;4432689;28;656797;-67
2023/10/08 09:36:42;;;;;;;3.63;2.27;;;13.60;99.90;;;;;;4420854;27;656708;-67
2023/10/08 09:39:33;;;;;;;3.33;2.10;;;13.40;99.90;;;;;;4455273;28;657969;-67
2023/10/08 09:42:24;;;;;;;2.47;1.57;;;13.60;99.90;;;;;;4421668;28;656766;-67
2023/10/08 09:45:11;;;;;;;4.63;1.70;;;13.90;99.90;;;;;;4430953;28;656829;-67
2023/10/08 09:47:59;;;;;;;3.93;1.60;;;14.00;99.90;;;;;;4425898;28;656457;-67
2023/10/08 09:50:46;;;;;;;3.07;1.60;;;13.60;99.90;;;;;;4444528;28;656842;-67
2023/10/08 09:53:39;;;;;;;2.13;1.50;;;13.70;99.90;;;;;;4433478;28;656559;-67
2023/10/08 09:56:27;;;;;;;2.60;1.50;;;14.00;99.90;;;;;;4425844;28;656564;-67
2023/10/08 09:59:15;;;;;;;3.07;1.50;;;14.50;99.90;;;;;;4434142;28;656788;-67
2023/10/08 10:02:03;;;;;;;3.57;1.30;;;14.00;99.90;;;;;;4433169;28;657154;-67
2023/10/08 10:04:52;;;;;;;3.20;1.57;;;13.70;99.90;;;;;;4452699;28;656892;-67
2023/10/08 10:07:41;;;;;;;4.27;1.33;;;14.10;99.90;;;;;;4430728;28;656674;-67
2023/10/08 10:10:30;;;;;;;2.57;1.40;;;14.60;99.90;;;;;;4430910;28;656597;-67
2023/10/08 10:13:18;;;;;;;5.93;1.20;;;14.80;99.90;;;;;;4432778;28;656968;-67
2023/10/08 10:16:08;;;;;;;3.17;1.13;;;14.90;87.20;;;;;;4443368;28;657754;-67
2023/10/08 10:18:58;;;;;;;3.37;1.33;;;14.60;97.00;;;;;;4550942;28;657735;-67
2023/10/08 10:21:47;;;;;;;4.40;1.40;;;14.40;99.90;;;;;;5087219;28;20225;-67
2023/10/08 10:24:37;;;;;;;4.50;1.47;;;14.40;93.40;;;;;;5086647;28;20241;-66
2023/10/08 10:27:25;;;;;;;3.20;1.57;;;14.20;99.90;;;;;;5092376;28;20222;-67
2023/10/08 10:30:18;;;;;;;2.20;1.43;;;14.30;98.00;;;;;;5095444;28;20227;-66
2023/10/08 10:33:07;;;;;;;2.37;1.43;;;12.70;93.40;;;;;;5102115;28;20714;-66
2023/10/08 10:35:54;;;;;;;2.53;1.20;;;12.60;99.90;;;;;;5097338;28;20584;-66
2023/10/08 10:38:42;;;;;;;2.73;1.27;;;12.50;95.80;;;;;;5089051;28;20195;-67
2023/10/08 10:41:29;;;;;;;6.07;1.20;;;13.00;99.90;;;;;;5100293;28;20189;-66
2023/10/08 10:44:16;;;;;;;2.77;1.20;;;13.90;90.10;;;;;;5095021;28;20196;-66
2023/10/08 10:53:16;;;;;;;4.13;1.43;;;14.10;79.60;;;;;;5096209;27;20905;-66
2023/10/08 10:56:05;;;;;;;3.13;1.30;;;14.00;81.70;;;;;;5089546;28;20216;-66
2023/10/08 10:58:53;;;;;;;7.03;1.67;;;13.80;75.70;;;;;;5092340;28;20196;-66
2023/10/08 11:01:46;;;;;;;2.17;1.40;;;14.20;76.30;;;;;;5092336;28;20283;-66
2023/10/08 11:04:45;;;;;;;4.50;1.27;;;14.80;76.30;;;;;;5092545;28;20206;-68
2023/10/08 11:07:34;;;;;;;2.30;1.20;;;15.00;71.60;;;;;;5088382;27;20233;-66
2023/10/08 11:10:24;;;;;;;3.47;1.20;;;15.40;69.00;;;;;;5087677;28;20199;-66
2023/10/08 11:13:14;;;;;;;4.13;1.60;;;15.10;66.50;;;;;;5093775;28;20241;-66
2023/10/08 11:16:03;;;;;;;6.13;1.40;;;13.90;72.30;;;;;;5088840;28;20202;-66
2023/10/08 11:18:51;;;;;;;3.67;1.23;;;14.20;75.50;;;;;;5092666;28;20287;-66
2023/10/08 11:21:50;;;;;;;4.37;1.03;;;14.70;68.90;;;;;;5091850;28;20249;-66
2023/10/08 11:24:42;;;;;;;4.43;1.40;;;15.10;67.50;;;;;;5091302;27;20211;-66
2023/10/08 11:27:35;;;;;;;2.87;1.23;;;15.40;66.60;;;;;;5092539;28;20798;-66
2023/10/08 11:30:23;;;;;;;2.43;1.20;;;14.60;51.00;;;;;;5089444;28;20221;-66
2023/10/08 11:33:15;;;;;;;3.27;1.13;;;14.50;58.20;;;;;;5091229;28;20698;-66
2023/10/08 11:36:02;;;;;;;2.63;1.10;;;15.30;59.10;;;;;;5093715;28;20229;-66
2023/10/08 11:38:50;;;;;;;4.07;1.30;;;15.30;54.50;;;;;;5089194;28;20199;-66
2023/10/08 11:41:49;;;;;;;2.47;1.13;;;15.50;54.50;;;;;;5094181;28;20331;-66
2023/10/08 11:44:37;;;;;;;2.27;0.93;;;14.80;49.80;;;;;;5089168;28;20213;-66
2023/10/08 11:47:25;;;;;;;2.00;1.10;;;13.70;51.60;;;;;;5092647;28;20588;-66
2023/10/08 11:50:18;;;;;;;2.33;1.10;;;14.30;54.50;;;;;;5087702;28;20219;-66
2023/10/08 11:53:06;;;;;;;3.20;1.10;;;14.50;55.00;;;;;;5089694;28;20231;-66
2023/10/08 11:55:56;;;;;;;5.03;1.10;;;14.70;54.60;;;;;;5095918;28;20202;-66
2023/10/08 11:58:45;;;;;;;5.47;1.43;;;14.80;52.80;;;;;;5093211;28;20201;-66
2023/10/08 12:01:35;;;;;;;6.77;1.63;;;14.70;55.60;;;;;;5089436;28;20199;-66
2023/10/08 12:04:22;;;;;;;3.50;1.30;;;14.40;53.70;;;;;;5087725;28;20202;-66
2023/10/08 12:07:10;;;;;;;2.90;1.07;;;14.20;51.70;;;;;;5093310;28;20982;-66
2023/10/08 12:09:57;;;;;;;3.57;1.10;;;13.90;49.70;;;;;;5087918;28;20214;-66
2023/10/08 12:12:45;;;;;;;3.33;1.30;;;13.60;50.50;;;;;;5092254;28;20641;-66
2023/10/08 12:15:38;;;;;;;3.87;1.40;;;14.00;50.10;;;;;;5093522;28;20218;-66
2023/10/08 12:18:25;;;;;;;2.77;1.20;;;14.50;49.40;;;;;;5087286;28;20238;-66
2023/10/08 12:21:15;;;;;;;3.40;1.30;;;15.00;50.40;;;;;;5094385;28;20194;-66
2023/10/08 12:24:05;;;;;;;2.17;1.07;;;14.80;49.50;;;;;;5097501;28;20325;-66
2023/10/08 12:26:52;;;;;;;5.00;1.10;;;14.20;47.80;;;;;;5088178;28;20745;-66
2023/10/08 12:29:39;;;;;;;4.50;1.23;;;14.60;51.00;;;;;;5087758;28;20203;-66
2023/10/08 12:32:30;;;;;;;2.93;1.10;;;13.90;49.70;;;;;;5088860;28;20220;-66
2023/10/08 12:35:17;;;;;;;12.13;1.47;;;14.20;51.30;;;;;;5101305;28;20210;-66
2023/10/08 12:38:08;;;;;;;3.10;1.17;;;13.70;51.50;;;;;;5092010;28;20215;-66
2023/10/08 12:40:56;;;;;;;1.53;0.80;;;14.50;50.60;;;;;;5099886;28;20221;-66
2023/10/08 12:43:45;;;;;;;3.17;0.90;;;15.50;47.80;;;;;;5098358;28;20209;-66
2023/10/08 12:46:33;;;;;;;2.83;1.00;;;14.30;49.50;;;;;;5089510;28;20210;-66
2023/10/08 12:49:22;;;;;;;2.27;1.00;;;14.90;49.90;;;;;;5088236;28;20201;-66
2023/10/08 12:52:11;;;;;;;2.50;0.90;;;15.40;49.70;;;;;;5100617;28;20263;-66
2023/10/08 12:55:03;;;;;;;3.80;1.07;;;15.50;49.80;;;;;;5087768;28;20395;-66
2023/10/08 12:57:55;;;;;;;3.63;1.10;;;15.60;50.80;;;;;;5087087;28;20192;-66
2023/10/08 13:00:42;;;;;;;4.13;1.00;;;14.80;47.10;;;;;;5085980;28;20337;-66
2023/10/08 13:03:31;;;;;;;3.47;1.37;;;15.20;48.70;;;;;;5085871;28;20574;-66
2023/10/08 13:06:22;;;;;;;3.17;1.20;;;15.30;50.70;;;;;;5096394;28;20309;-66
2023/10/08 13:09:12;;;;;;;2.13;1.00;;;15.50;49.70;;;;;;5087408;28;20286;-66
2023/10/08 13:12:00;;;;;;;4.67;1.40;;;14.40;48.80;;;;;;5093323;28;20206;-66
2023/10/08 13:14:47;;;;;;;3.53;1.10;;;14.00;52.20;;;;;;5089380;28;20223;-66
2023/10/08 13:17:35;;;;;;;2.50;1.27;;;14.70;51.40;;;;;;5092469;28;20555;-66
2023/10/08 13:20:23;;;;;;;1.73;1.00;;;14.20;48.30;;;;;;5089886;28;20268;-66
2023/10/08 13:23:12;;;;;;;2.63;1.07;;;14.50;50.10;;;;;;5092157;28;20200;-66
2023/10/08 13:26:04;;;;;;;4.60;1.53;;;15.20;49.10;;;;;;5092346;28;20234;-66
2023/10/08 13:28:52;;;;;;;3.77;1.27;;;15.00;46.30;;;;;;5088461;28;20223;-66
2023/10/08 13:31:39;;;;;;;5.13;1.33;;;14.20;47.40;;;;;;5086524;28;20638;-65
2023/10/08 13:34:26;;;;;;;6.17;1.27;;;13.60;48.00;;;;;;5089484;28;20207;-66
2023/10/08 13:37:15;;;;;;;3.00;1.10;;;12.90;46.40;;;;;;5096530;28;20655;-65
2023/10/08 13:40:04;;;;;;;3.63;1.00;;;12.60;46.80;;;;;;5091458;28;20342;-66
2023/10/08 13:42:52;;;;;;;2.77;1.17;;;13.10;51.00;;;;;;5085967;28;20202;-66
2023/10/08 13:45:41;;;;;;;2.33;0.97;;;13.30;49.20;;;;;;5088812;28;20199;-66
2023/10/08 13:48:29;;;;;;;4.13;1.10;;;13.50;48.40;;;;;;5091603;28;20395;-66
2023/10/08 13:51:20;;;;;;;4.93;1.20;;;13.10;49.00;;;;;;5087398;28;20237;-66
2023/10/08 13:54:09;;;;;;;2.93;1.30;;;13.20;49.10;;;;;;5087296;28;20208;-66
2023/10/08 13:56:58;;;;;;;3.97;1.33;;;13.30;48.70;;;;;;5088349;28;20283;-66
2023/10/08 13:59:46;;;;;;;4.47;1.40;;;13.60;51.60;;;;;;5092059;28;20199;-66
2023/10/08 14:02:35;;;;;;;3.83;1.57;;;13.70;48.40;;;;;;5095949;28;20338;-66
2023/10/08 14:05:24;;;;;;;6.43;1.53;;;13.90;50.70;;;;;;5085452;28;20624;-66
2023/10/08 14:08:15;;;;;;;4.37;1.60;;;13.70;50.60;;;;;;5088599;28;20220;-66
2023/10/08 14:11:03;;;;;;;4.03;1.20;;;12.90;48.60;;;;;;5092270;28;20356;-66
2023/10/08 14:13:52;;;;;;;4.40;1.40;;;13.60;48.50;;;;;;5095101;28;20200;-65
2023/10/08 14:16:41;;;;;;;2.67;1.17;;;13.40;46.90;;;;;;5093114;28;20204;-65
2023/10/08 14:19:36;;;;;;;3.57;1.30;;;14.60;45.30;;;;;;5096928;28;20571;-66
2023/10/08 14:22:24;;;;;;;3.13;1.30;;;15.20;44.00;;;;;;5092095;28;20574;-66
2023/10/08 14:25:14;;;;;;;4.60;1.40;;;14.90;43.60;;;;;;5081756;28;20208;-66
2023/10/08 14:28:06;;;;;;;5.57;1.70;;;15.40;45.60;;;;;;5097127;28;20375;-66
2023/10/08 14:30:56;;;;;;;4.27;1.30;;;15.20;44.00;;;;;;5098262;27;20202;-66
2023/10/08 14:33:55;;;;;;;3.57;1.20;;;14.90;43.40;;;;;;5092629;28;20209;-66
2023/10/08 14:42:55;;;;;;;4.73;1.33;;;13.70;44.20;;;;;;5097281;28;20199;-66
2023/10/08 14:45:46;;;;;;;3.23;1.10;;;15.00;44.20;;;;;;5095368;28;20348;-66
2023/10/08 14:48:36;;;;;;;2.43;0.80;;;15.50;43.10;;;;;;5095046;28;20226;-65
2023/10/08 14:51:24;;;;;;;4.23;1.10;;;15.80;40.40;;;;;;5092045;28;20218;-66
2023/10/08 14:54:11;;;;;;;2.50;1.00;;;16.00;42.60;;;;;;5097667;28;20204;-66
2023/10/08 14:56:59;;;;;;;2.23;1.00;;;16.60;40.40;;;;;;5097356;28;20345;-66
2023/10/08 14:59:46;;;;;;;5.60;1.20;;;16.90;40.90;;;;;;5092697;27;20204;-66
2023/10/08 15:02:33;;;;;;;4.47;1.33;;;17.00;40.00;;;;;;5098968;28;20206;-66
2023/10/08 15:05:22;;;;;;;3.13;1.50;;;16.70;40.30;;;;;;5102691;28;20199;-65